Time;durP1;ratioP1;P1;durP2;ratioP2;P2;SDS_P1;SDS_P2;PMS_P1;PMS_P2;Temp;Humidity;BMP_temperature;BMP_pressure;BME280_temperature;BME280_humidity;BME280_pressure;Samples;Min_cycle;Max_cycle;Signal;HPM_P1;HPM_P2
2022/01/05 00:01:00;;;;;;;19.67;13.70;;;;;;;-143.84;91.94;43823.00;5031291;28;20497;-75
2022/01/05 00:03:28;;;;;;;27.53;14.40;;;;;;;-143.84;91.92;43876.31;5030655;28;20482;-73
2022/01/05 00:05:55;;;;;;;16.50;13.63;;;;;;;-143.84;92.00;43857.28;5030261;28;20493;-73
2022/01/05 00:08:25;;;;;;;16.73;13.73;;;;;;;-143.84;92.03;43845.84;5030990;28;20504;-73
2022/01/05 00:10:52;;;;;;;20.83;14.40;;;;;;;-143.84;91.90;43832.53;5031046;28;20875;-72
2022/01/05 00:13:20;;;;;;;25.07;15.40;;;;;;;-143.84;92.00;43857.28;5030885;28;20466;-73
2022/01/05 00:15:47;;;;;;;18.50;15.40;;;;;;;-143.84;92.20;43859.19;5030378;28;20535;-73
2022/01/05 00:18:14;;;;;;;20.10;15.57;;;;;;;-143.84;91.92;43882.00;5030465;28;20847;-73
2022/01/05 00:20:43;;;;;;;18.80;13.93;;;;;;;-143.84;92.21;43849.66;5030630;28;21167;-73
2022/01/05 00:23:10;;;;;;;23.03;15.93;;;;;;;-143.84;92.36;43821.09;5030894;28;20460;-73
2022/01/05 00:25:39;;;;;;;18.10;14.73;;;;;;;-143.84;92.35;43853.47;5030517;28;20490;-73
2022/01/05 00:28:06;;;;;;;17.80;14.27;;;;;;;-143.84;92.63;43819.19;5030330;28;20469;-73
2022/01/05 00:30:33;;;;;;;28.67;15.87;;;;;;;-143.84;92.76;43800.16;5030250;28;20846;-73
2022/01/05 00:33:01;;;;;;;22.60;15.80;;;;;;;-143.84;92.75;43815.41;5012913;28;20453;-73
2022/01/05 00:35:29;;;;;;;22.53;15.80;;;;;;;-143.84;92.60;43807.78;5030563;28;20446;-73
2022/01/05 00:37:56;;;;;;;17.03;14.13;;;;;;;-143.84;92.53;43809.69;5030388;28;20496;-72
2022/01/05 00:40:23;;;;;;;21.03;15.73;;;;;;;-143.84;92.58;43830.63;5030451;28;20442;-72
2022/01/05 00:42:52;;;;;;;28.90;15.80;;;;;;;-143.84;92.75;43798.25;5030223;28;20496;-73
2022/01/05 00:45:19;;;;;;;20.40;16.20;;;;;;;-143.84;92.93;43796.34;5030035;28;20491;-73
2022/01/05 00:47:46;;;;;;;23.83;17.50;;;;;;;-143.84;92.91;43758.28;5030030;28;21116;-73
2022/01/05 00:50:13;;;;;;;18.63;15.40;;;;;;;-143.84;92.89;43798.25;5029758;28;20450;-72
2022/01/05 00:52:40;;;;;;;22.30;16.50;;;;;;;-143.84;93.32;43817.31;5029704;28;20500;-73
2022/01/05 00:55:08;;;;;;;26.13;17.00;;;;;;;-143.84;93.57;43767.81;5029819;28;20450;-73
2022/01/05 00:57:36;;;;;;;28.73;16.77;;;;;;;-143.84;93.54;43735.44;5029707;28;20450;-72
2022/01/05 01:00:05;;;;;;;20.30;16.07;;;;;;;-143.84;93.66;43790.66;5029742;28;20503;-72
2022/01/05 01:02:32;;;;;;;24.30;17.63;;;;;;;-143.84;93.67;43760.19;5029740;28;20442;-73
2022/01/05 01:04:59;;;;;;;26.50;16.47;;;;;;;-143.84;93.60;43783.03;5029610;28;20473;-72
2022/01/05 01:07:26;;;;;;;20.63;15.50;;;;;;;-143.84;93.69;43773.53;5029452;28;20982;-72
2022/01/05 01:09:53;;;;;;;23.37;17.33;;;;;;;-143.84;93.73;43792.56;5029123;28;20456;-72
2022/01/05 01:12:20;;;;;;;25.40;16.20;;;;;;;-143.84;93.64;43779.22;5029200;28;20493;-72
2022/01/05 01:14:47;;;;;;;26.77;17.90;;;;;;;-143.84;93.74;43790.66;5028554;28;21482;-73
2022/01/05 01:17:16;;;;;;;28.60;18.23;;;;;;;-143.84;93.66;43802.06;5029666;28;20449;-72
2022/01/05 01:19:43;;;;;;;21.20;16.90;;;;;;;-143.84;93.79;43764.00;5029489;28;20457;-73
2022/01/05 01:22:10;;;;;;;24.03;16.47;;;;;;;-143.84;93.92;43802.06;5029500;28;20439;-73
2022/01/05 01:24:38;;;;;;;20.70;14.83;;;;;;;-143.84;93.88;43773.53;5011771;28;20449;-72
2022/01/05 01:27:06;;;;;;;18.40;15.37;;;;;;;-143.84;93.76;43788.75;5029216;28;20481;-73
2022/01/05 01:29:33;;;;;;;23.90;15.30;;;;;;;-143.84;93.49;43786.84;5011886;28;20507;-73
2022/01/05 01:32:00;;;;;;;17.00;13.30;;;;;;;-143.84;93.43;43794.47;5029525;28;20453;-73
2022/01/05 01:34:28;;;;;;;17.90;14.03;;;;;;;-143.84;93.46;43800.16;5029480;28;20948;-73
2022/01/05 01:36:56;;;;;;;14.83;12.37;;;;;;;-143.84;92.97;43819.19;5029554;28;20506;-73
2022/01/05 01:39:23;;;;;;;15.47;13.53;;;;;;;-143.84;92.91;43786.84;5028702;28;20449;-74
2022/01/05 01:41:50;;;;;;;16.00;12.70;;;;;;;-143.84;92.55;43830.63;5028949;28;20495;-74
2022/01/05 01:44:17;;;;;;;18.90;12.90;;;;;;;-143.84;92.58;43868.69;5032606;28;20450;-74
2022/01/05 01:46:44;;;;;;;19.40;13.03;;;;;;;-143.84;92.66;43855.38;5032680;28;20484;-74
2022/01/05 01:49:11;;;;;;;20.50;12.57;;;;;;;-143.84;92.46;43838.25;5032479;28;20438;-74
2022/01/05 01:51:40;;;;;;;15.93;12.63;;;;;;;-143.84;92.18;43870.59;5032462;28;20853;-74
2022/01/05 01:54:08;;;;;;;14.90;12.73;;;;;;;-143.84;92.09;43925.78;5032556;28;20448;-74
2022/01/05 01:56:36;;;;;;;17.00;11.80;;;;;;;-143.84;91.83;43935.31;5032107;28;20503;-74
2022/01/05 01:59:04;;;;;;;19.40;12.33;;;;;;;-143.84;91.63;43981.00;5032616;28;20496;-74
2022/01/05 02:01:31;;;;;;;20.30;13.10;;;;;;;-143.84;91.42;43990.53;5032480;28;20453;-74
2022/01/05 02:03:58;;;;;;;17.70;13.87;;;;;;;-143.84;91.29;44022.88;5032598;28;20516;-74
2022/01/05 02:06:25;;;;;;;15.37;13.03;;;;;;;-143.84;91.44;43992.41;5032546;28;20493;-74
2022/01/05 02:08:54;;;;;;;19.60;14.63;;;;;;;-143.84;91.53;43984.81;5032535;28;20523;-74
2022/01/05 02:11:21;;;;;;;20.40;14.10;;;;;;;-143.84;91.51;43994.31;5032305;28;20623;-74
2022/01/05 02:13:48;;;;;;;18.23;14.10;;;;;;;-143.84;91.60;43977.19;5031893;28;20449;-74
2022/01/05 02:16:21;;;;;;;22.07;15.77;;;;;;;-143.84;91.58;44022.88;5031851;28;20478;-74
2022/01/05 02:19:01;;;;;;;18.53;13.10;;;;;;;-143.84;91.65;43984.81;5032028;28;20476;-74
2022/01/05 02:21:31;;;;;;;21.20;15.50;;;;;;;-143.84;91.80;43963.88;5032064;28;20450;-74
2022/01/05 02:23:58;;;;;;;21.93;15.70;;;;;;;-143.84;92.11;43910.56;5031752;28;20446;-74
2022/01/05 02:26:25;;;;;;;20.20;16.17;;;;;;;-143.84;91.97;43906.75;5031734;28;20542;-74
2022/01/05 02:28:53;;;;;;;25.80;17.77;;;;;;;-143.84;92.14;43914.38;5031812;28;20554;-74
2022/01/05 02:31:20;;;;;;;24.87;18.50;;;;;;;-143.84;92.03;43922.00;5031645;28;21025;-74
2022/01/05 02:33:47;;;;;;;25.23;18.27;;;;;;;-143.84;92.25;43887.72;5031452;28;20447;-74
2022/01/05 02:36:18;;;;;;;23.87;17.13;;;;;;;-143.84;92.20;43901.06;5031569;28;20503;-74
2022/01/05 02:38:48;;;;;;;24.57;17.47;;;;;;;-143.84;92.19;43946.75;5031860;28;20952;-74
2022/01/05 02:41:16;;;;;;;26.13;18.20;;;;;;;-143.84;91.84;43984.81;5031709;28;20507;-74
2022/01/05 02:43:44;;;;;;;22.30;17.60;;;;;;;-143.84;91.80;43986.72;5031436;28;20820;-74
2022/01/05 02:46:12;;;;;;;24.33;16.30;;;;;;;-143.84;91.86;43967.69;5031342;28;20543;-74
2022/01/05 02:48:41;;;;;;;24.20;15.77;;;;;;;-143.84;92.04;43956.25;5031496;28;20434;-74
2022/01/05 02:51:08;;;;;;;17.40;13.03;;;;;;;-143.84;91.74;43988.63;5031365;28;20500;-74
2022/01/05 02:53:36;;;;;;;23.47;13.80;;;;;;;-143.84;91.35;44019.06;5030214;28;20442;-74
2022/01/05 02:56:05;;;;;;;17.10;13.60;;;;;;;-143.84;91.74;44013.38;5031390;28;20495;-74
2022/01/05 02:58:32;;;;;;;19.53;13.80;;;;;;;-143.84;91.73;44043.81;5013805;28;20876;-74
2022/01/05 03:01:00;;;;;;;19.17;14.20;;;;;;;-143.84;91.51;44072.38;5031007;28;20434;-74
2022/01/05 03:03:28;;;;;;;16.07;13.07;;;;;;;-143.84;91.36;44028.59;5014099;28;20446;-74
2022/01/05 03:05:55;;;;;;;17.47;12.33;;;;;;;-143.84;91.30;44102.84;5031258;28;20492;-74
2022/01/05 03:08:23;;;;;;;16.07;13.33;;;;;;;-143.84;91.11;44148.53;5031158;28;21329;-74
2022/01/05 03:10:50;;;;;;;16.27;12.73;;;;;;;-143.84;90.82;44190.41;5031392;28;21037;-74
2022/01/05 03:13:19;;;;;;;17.63;13.40;;;;;;;-143.84;90.80;44222.75;5031126;28;21260;-74
2022/01/05 03:15:47;;;;;;;17.53;12.53;;;;;;;-143.84;90.75;44228.47;5030829;28;20528;-74
2022/01/05 03:18:14;;;;;;;19.33;14.03;;;;;;;-143.84;90.89;44230.38;5030960;28;20450;-74
2022/01/05 03:20:41;;;;;;;17.43;12.73;;;;;;;-143.84;90.75;44274.16;5030881;28;20515;-74
2022/01/05 03:23:08;;;;;;;18.77;13.13;;;;;;;-143.84;90.18;44378.88;5030833;28;20950;-74
2022/01/05 03:25:35;;;;;;;17.83;11.83;;;;;;;-143.84;89.95;44477.88;5030928;28;20442;-74
2022/01/05 03:28:02;;;;;;;18.87;12.30;;;;;;;-143.84;89.65;44542.59;5030803;28;20446;-74
2022/01/05 03:30:33;;;;;;;20.70;14.10;;;;;;;-143.84;89.68;44548.31;5031049;28;20872;-74
2022/01/05 03:35:46;;;;;;;18.30;14.07;;;;;;;-143.84;89.01;44613.03;5029973;28;20446;-73
2022/01/05 03:38:15;;;;;;;21.33;14.30;;;;;;;-143.84;89.09;44662.53;5030543;28;20442;-74
2022/01/05 03:40:43;;;;;;;18.97;14.60;;;;;;;-143.84;89.21;44694.91;5030531;28;20445;-74
2022/01/05 03:43:10;;;;;;;20.23;13.10;;;;;;;-143.84;88.84;44702.53;5030473;28;20959;-74
2022/01/05 03:45:39;;;;;;;21.23;13.47;;;;;;;-143.84;88.16;44782.50;5030481;28;21034;-74
2022/01/05 03:48:09;;;;;;;18.50;12.27;;;;;;;-143.84;88.00;44793.91;5030357;28;21007;-74
2022/01/05 03:50:37;;;;;;;17.10;12.47;;;;;;;-143.84;87.88;44843.44;5030315;28;20442;-74
2022/01/05 03:53:05;;;;;;;18.60;12.37;;;;;;;-143.84;87.81;44818.66;5030130;28;21049;-74
2022/01/05 03:55:33;;;;;;;14.67;11.90;;;;;;;-143.84;87.59;44852.94;5030202;28;20504;-74
2022/01/05 03:58:00;;;;;;;19.20;12.80;;;;;;;-143.84;87.88;44835.81;5030160;28;20457;-74
2022/01/05 04:00:29;;;;;;;13.10;10.50;;;;;;;-143.84;87.71;44843.44;5030159;28;20461;-74
2022/01/05 04:02:58;;;;;;;14.43;10.50;;;;;;;-143.84;87.31;44898.66;5030716;28;20493;-74
2022/01/05 04:05:28;;;;;;;15.20;11.43;;;;;;;-143.84;86.85;44915.78;5030331;28;20446;-74
2022/01/05 04:07:55;;;;;;;14.87;12.07;;;;;;;-143.84;86.52;44955.75;5030637;28;20478;-74
2022/01/05 04:10:22;;;;;;;13.20;10.70;;;;;;;-143.84;86.48;44944.34;5030118;28;20928;-73
2022/01/05 04:12:49;;;;;;;14.67;10.77;;;;;;;-143.84;86.54;44938.63;5030094;28;20449;-74
2022/01/05 04:15:16;;;;;;;15.07;11.80;;;;;;;-143.84;86.35;44976.72;5029899;28;20482;-72
2022/01/05 04:17:45;;;;;;;12.93;10.30;;;;;;;-143.84;86.51;44944.34;5030370;28;20453;-73
2022/01/05 04:20:15;;;;;;;15.23;12.17;;;;;;;-143.84;86.79;44921.50;5030038;28;20469;-75
2022/01/05 04:22:42;;;;;;;15.00;11.67;;;;;;;-143.84;86.84;44953.88;5029959;28;20451;-74
2022/01/05 04:25:10;;;;;;;18.83;10.80;;;;;;;-143.84;86.78;44950.06;5030185;28;20446;-75
2022/01/05 04:27:37;;;;;;;18.17;12.00;;;;;;;-143.84;86.64;44927.19;5012184;28;20543;-75
2022/01/05 04:30:05;;;;;;;16.53;11.70;;;;;;;-143.84;86.51;44948.16;5030132;28;20450;-75
2022/01/05 04:32:32;;;;;;;18.83;12.87;;;;;;;-143.84;86.40;44953.88;5029498;28;20455;-75
2022/01/05 04:34:59;;;;;;;15.10;12.23;;;;;;;-143.84;86.14;44957.66;5028849;28;20445;-75
2022/01/05 04:37:29;;;;;;;15.23;11.27;;;;;;;-143.84;86.03;44974.81;5029705;28;20449;-75
2022/01/05 04:39:56;;;;;;;16.33;12.47;;;;;;;-143.84;86.08;44932.91;5029852;28;20493;-75
2022/01/05 04:42:24;;;;;;;15.50;10.97;;;;;;;-143.84;86.17;44957.66;5029677;28;20446;-75
2022/01/05 04:44:52;;;;;;;14.57;11.97;;;;;;;-143.84;86.06;44969.09;5029395;28;20448;-75
2022/01/05 04:47:19;;;;;;;15.70;11.57;;;;;;;-143.84;85.99;44940.53;5029273;28;20489;-75
2022/01/05 04:49:46;;;;;;;16.10;12.40;;;;;;;-143.84;85.85;44951.97;5029409;28;20452;-75
2022/01/05 04:52:13;;;;;;;14.10;11.37;;;;;;;-143.84;86.04;44986.22;5029299;28;20445;-75
2022/01/05 04:54:42;;;;;;;16.00;12.50;;;;;;;-143.84;86.10;44984.31;5029247;28;20515;-75
2022/01/05 04:57:09;;;;;;;14.73;11.07;;;;;;;-143.84;85.87;44969.09;5029075;28;20471;-75
2022/01/05 04:59:36;;;;;;;18.00;11.77;;;;;;;-143.84;85.78;44995.75;5029129;28;20882;-75
2022/01/05 05:02:04;;;;;;;17.93;11.67;;;;;;;-143.84;85.40;44940.53;5029110;28;20442;-75
2022/01/05 05:04:31;;;;;;;16.70;11.77;;;;;;;-143.84;85.77;44972.91;5029172;28;20458;-75
2022/01/05 05:06:58;;;;;;;16.63;12.33;;;;;;;-143.84;85.56;45007.19;5029285;28;20910;-75
2022/01/05 05:09:25;;;;;;;14.30;10.50;;;;;;;-143.84;85.17;44986.22;5029163;28;20446;-75
2022/01/05 05:11:54;;;;;;;12.90;10.57;;;;;;;-143.84;85.12;45010.97;5028862;28;20444;-75
2022/01/05 05:14:21;;;;;;;14.57;10.80;;;;;;;-143.84;84.83;45041.44;5028682;28;20489;-75
2022/01/05 05:16:48;;;;;;;15.83;11.93;;;;;;;-143.84;84.42;45033.84;5028511;28;20465;-75
2022/01/05 05:19:15;;;;;;;16.33;11.77;;;;;;;-143.84;84.11;45012.88;5028802;28;20508;-75
2022/01/05 05:21:42;;;;;;;14.97;10.50;;;;;;;-143.84;83.99;45047.16;5029215;28;20943;-75
2022/01/05 05:24:13;;;;;;;13.10;9.77;;;;;;;-143.84;83.75;45064.31;5029176;28;21134;-75
2022/01/05 05:26:40;;;;;;;11.73;10.00;;;;;;;-143.84;83.41;45075.72;5028634;28;20500;-75
2022/01/05 05:29:09;;;;;;;14.20;10.80;;;;;;;-143.84;82.76;45068.13;5029099;28;20454;-75
2022/01/05 05:31:36;;;;;;;12.10;10.00;;;;;;;-143.84;82.56;45064.31;5028868;28;20465;-75
2022/01/05 05:34:03;;;;;;;13.20;11.37;;;;;;;-143.84;82.17;45030.03;5028607;28;20450;-75
2022/01/05 05:36:30;;;;;;;15.80;10.93;;;;;;;-143.84;82.17;45073.81;5028699;28;20437;-75
2022/01/05 05:38:57;;;;;;;14.10;10.80;;;;;;;-143.84;82.07;45087.16;5028680;28;20446;-75
2022/01/05 05:41:25;;;;;;;12.93;10.50;;;;;;;-143.84;81.82;45070.00;5028813;28;20955;-75
2022/01/05 05:43:52;;;;;;;15.60;10.57;;;;;;;-143.84;81.72;45079.53;5028815;28;20958;-75
2022/01/05 05:46:21;;;;;;;14.30;9.73;;;;;;;-143.84;81.95;45085.25;5028752;28;20879;-75
2022/01/05 05:48:48;;;;;;;15.93;11.80;;;;;;;-143.84;81.97;45089.06;5028388;28;20450;-75
2022/01/05 05:51:15;;;;;;;13.43;10.90;;;;;;;-143.84;81.77;45062.41;5028291;28;20841;-75
2022/01/05 05:53:42;;;;;;;13.07;10.47;;;;;;;-143.84;81.52;45083.34;5028371;28;20493;-75
2022/01/05 05:56:09;;;;;;;24.00;10.70;;;;;;;-143.84;81.22;45087.16;5028214;28;20535;-75
2022/01/05 05:58:36;;;;;;;17.93;11.20;;;;;;;-143.84;81.30;45094.78;5028995;28;20589;-75
2022/01/05 06:01:04;;;;;;;17.90;12.60;;;;;;;-143.84;81.61;45106.19;5028400;28;20496;-74
2022/01/05 06:03:33;;;;;;;19.07;12.73;;;;;;;-143.84;81.90;45087.16;5028518;28;20454;-75
2022/01/05 06:06:00;;;;;;;18.93;12.63;;;;;;;-143.84;82.01;45110.00;5028333;28;20443;-75
2022/01/05 06:08:27;;;;;;;19.23;12.47;;;;;;;-143.84;81.90;45060.50;5028151;28;20485;-75
2022/01/05 06:10:54;;;;;;;17.17;11.47;;;;;;;-143.84;81.82;45060.50;5028565;28;20445;-75
2022/01/05 06:13:21;;;;;;;25.53;11.37;;;;;;;-143.84;81.83;45083.34;5028375;28;20450;-74
2022/01/05 06:15:48;;;;;;;18.47;11.50;;;;;;;-143.84;81.64;45087.16;5028598;28;20497;-74
2022/01/05 06:18:16;;;;;;;22.00;10.37;;;;;;;-143.84;81.58;45077.63;5028568;28;20438;-74
2022/01/05 06:20:44;;;;;;;10.67;9.53;;;;;;;-143.84;81.01;45085.25;5028304;28;20789;-74
2022/01/05 06:23:12;;;;;;;14.37;10.23;;;;;;;-143.84;80.83;45089.06;5028850;28;20450;-74
2022/01/05 06:25:39;;;;;;;15.90;11.30;;;;;;;-143.84;80.67;45096.66;5028463;28;20927;-74
2022/01/05 06:28:08;;;;;;;15.50;11.27;;;;;;;-143.84;80.16;45108.09;5029268;28;21079;-74
2022/01/05 06:30:36;;;;;;;15.20;11.37;;;;;;;-143.84;80.00;45111.91;5032179;28;20624;-74
2022/01/05 06:33:03;;;;;;;15.00;10.57;;;;;;;-143.84;79.68;45094.78;5032061;28;20446;-74
2022/01/05 06:35:32;;;;;;;15.70;11.23;;;;;;;-143.84;79.58;45094.78;5032212;28;20450;-74
2022/01/05 06:38:00;;;;;;;13.40;10.10;;;;;;;-143.84;79.00;45090.97;5014443;28;20464;-74
2022/01/05 06:40:28;;;;;;;16.20;10.37;;;;;;;-143.84;78.86;45110.00;5032216;28;21042;-75
2022/01/05 06:42:55;;;;;;;18.40;10.30;;;;;;;-143.84;79.19;45085.25;5032054;28;21248;-75
2022/01/05 06:45:23;;;;;;;12.53;9.83;;;;;;;-143.84;78.94;45108.09;5031833;28;20452;-75
2022/01/05 06:47:50;;;;;;;15.80;11.13;;;;;;;-143.84;78.09;45092.88;5031600;28;20482;-75
2022/01/05 06:50:17;;;;;;;14.93;10.90;;;;;;;-143.84;77.52;45100.47;5031792;28;20454;-75
2022/01/05 06:52:44;;;;;;;13.33;9.70;;;;;;;-143.84;76.29;45089.06;5031553;28;20444;-72
2022/01/05 06:55:13;;;;;;;12.20;9.63;;;;;;;-143.84;75.80;45115.72;5031813;28;20438;-71
2022/01/05 06:57:41;;;;;;;11.63;10.00;;;;;;;-143.84;75.33;45117.63;5031868;28;20439;-73
2022/01/05 07:00:10;;;;;;;14.23;10.20;;;;;;;-143.84;74.41;45125.22;5032061;28;20497;-74
2022/01/05 07:02:38;;;;;;;25.87;12.87;;;;;;;-143.84;74.61;45104.28;5031327;28;20448;-74
2022/01/05 07:05:06;;;;;;;13.00;9.77;;;;;;;-143.84;74.12;45125.22;5031658;28;20494;-75
2022/01/05 07:07:33;;;;;;;13.87;11.30;;;;;;;-143.84;74.04;45098.56;5031392;28;20489;-75
2022/01/05 07:10:00;;;;;;;13.10;10.30;;;;;;;-143.84;73.64;45087.16;5031235;28;20933;-75
2022/01/05 07:12:29;;;;;;;14.00;10.77;;;;;;;-143.84;73.58;45127.13;5031210;28;20451;-72
2022/01/05 07:14:56;;;;;;;13.43;9.50;;;;;;;-143.84;73.50;45089.06;5031023;28;20494;-73
2022/01/05 07:17:23;;;;;;;14.33;10.60;;;;;;;-143.84;73.26;45108.09;5031378;28;20453;-74
2022/01/05 07:19:50;;;;;;;17.37;11.50;;;;;;;-143.84;72.67;45100.47;5031451;28;20448;-74
2022/01/05 07:22:18;;;;;;;16.17;10.20;;;;;;;-143.84;72.59;45110.00;5031512;28;21085;-75
2022/01/05 07:24:45;;;;;;;11.17;9.50;;;;;;;-143.84;72.51;45125.22;5031554;28;20452;-79
2022/01/05 07:27:13;;;;;;;16.97;11.20;;;;;;;-143.84;71.59;45102.38;5030719;28;20492;-75
2022/01/05 07:29:41;;;;;;;12.77;10.50;;;;;;;-143.84;71.31;45087.16;5030719;28;20443;-73
2022/01/05 07:32:09;;;;;;;16.07;12.03;;;;;;;-143.84;70.77;45123.34;5039371;28;20886;-74
2022/01/05 07:34:37;;;;;;;14.23;11.37;;;;;;;-143.84;70.42;45121.44;5050890;28;20446;-74
2022/01/05 07:37:04;;;;;;;14.37;10.93;;;;;;;-143.84;69.92;45157.59;5051192;28;20517;-74
2022/01/05 07:39:32;;;;;;;18.23;11.20;;;;;;;-143.84;68.89;45117.63;5050220;28;20438;-74
2022/01/05 07:41:59;;;;;;;13.63;10.87;;;;;;;-143.84;68.69;45096.66;5050784;28;20445;-74
2022/01/05 07:44:26;;;;;;;11.43;9.43;;;;;;;-143.84;68.49;45113.81;5050733;28;20441;-75
2022/01/05 07:46:55;;;;;;;16.23;11.00;;;;;;;-143.84;67.60;45115.72;5050819;28;20848;-74
2022/01/05 07:49:22;;;;;;;15.47;10.37;;;;;;;-143.84;67.24;45098.56;5050539;28;20533;-79
2022/01/05 07:51:49;;;;;;;15.70;11.47;;;;;;;-143.84;67.22;45110.00;5052038;28;20502;-79
2022/01/05 07:54:16;;;;;;;19.53;10.90;;;;;;;-143.84;66.30;45090.97;5051858;28;20451;-79
2022/01/05 07:56:43;;;;;;;16.70;10.87;;;;;;;-143.84;66.73;45071.91;5051510;28;20958;-79
2022/01/05 07:59:10;;;;;;;15.77;11.93;;;;;;;-143.84;66.67;45104.28;5052005;28;20454;-78
2022/01/05 08:01:38;;;;;;;12.90;10.90;;;;;;;-143.84;65.89;45094.78;5051655;28;20449;-78
2022/01/05 08:04:07;;;;;;;16.20;11.47;;;;;;;-143.84;65.97;45108.09;5051907;28;20500;-79
2022/01/05 08:06:34;;;;;;;13.70;10.93;;;;;;;-143.84;65.70;45108.09;5050776;28;20583;-74
2022/01/05 08:09:02;;;;;;;17.10;12.23;;;;;;;-143.84;65.29;45096.66;5050583;28;20544;-74
2022/01/05 08:11:29;;;;;;;14.80;10.90;;;;;;;-143.84;64.91;45106.19;5050409;28;20451;-74
2022/01/05 08:13:56;;;;;;;16.40;11.20;;;;;;;-143.84;65.11;45079.53;5050467;28;20467;-74
2022/01/05 08:16:23;;;;;;;17.00;10.50;;;;;;;-143.84;63.65;45092.88;5036718;28;20819;-74
2022/01/05 08:18:50;;;;;;;16.07;12.30;;;;;;;-143.84;64.74;45130.94;5030263;28;20457;-74
2022/01/05 08:21:21;;;;;;;14.00;11.17;;;;;;;-143.84;64.47;45102.38;5030591;28;21217;-74
2022/01/05 08:23:49;;;;;;;15.07;12.13;;;;;;;-143.84;64.20;45077.63;5029380;28;20495;-74
2022/01/05 08:26:17;;;;;;;11.30;10.07;;;;;;;-143.84;63.53;45102.38;5030439;28;20455;-74
2022/01/05 08:28:44;;;;;;;16.30;11.47;;;;;;;-143.84;63.47;45092.88;5030549;28;21027;-75
2022/01/05 08:31:11;;;;;;;16.43;11.00;;;;;;;-143.84;63.08;45077.63;5030462;28;21013;-74
2022/01/05 08:33:38;;;;;;;14.83;11.37;;;;;;;-143.84;62.98;45087.16;5030529;28;20970;-74
2022/01/05 08:36:06;;;;;;;14.03;10.60;;;;;;;-143.84;62.51;45104.28;5030559;28;20461;-73
2022/01/05 08:38:37;;;;;;;13.33;10.47;;;;;;;-143.84;61.69;45090.97;5005242;28;20473;-73
2022/01/05 08:41:04;;;;;;;16.40;10.20;;;;;;;-143.84;61.65;45113.81;5028341;28;20816;-72
2022/01/05 08:43:33;;;;;;;15.23;11.67;;;;;;;-143.84;61.07;45098.56;5028978;28;20477;-74
2022/01/05 08:46:00;;;;;;;13.53;11.03;;;;;;;-143.84;60.23;45087.16;5028872;28;20455;-73
2022/01/05 08:48:28;;;;;;;12.47;10.40;;;;;;;-143.84;59.63;45071.91;5024485;28;20812;-73
2022/01/05 08:50:55;;;;;;;12.80;10.10;;;;;;;-143.84;58.62;45085.25;5029599;28;20967;-73
2022/01/05 08:53:23;;;;;;;16.57;10.23;;;;;;;-143.84;57.68;45075.72;5029334;28;20443;-71
2022/01/05 08:55:52;;;;;;;18.73;11.30;;;;;;;-143.84;58.23;45098.56;5029594;28;20534;-74
2022/01/05 08:58:21;;;;;;;12.37;9.70;;;;;;;-143.84;57.29;45083.34;5029365;28;20479;-75
2022/01/05 09:00:49;;;;;;;10.23;9.10;;;;;;;-143.84;56.75;45068.13;5031265;28;20442;-75
2022/01/05 09:03:18;;;;;;;13.53;11.23;;;;;;;-143.84;56.57;45073.81;5050257;28;20557;-79
2022/01/05 09:05:46;;;;;;;14.10;10.53;;;;;;;-143.84;56.48;45092.88;5051439;28;20485;-79
2022/01/05 09:08:14;;;;;;;13.00;10.10;;;;;;;-143.84;56.11;45113.81;5051576;28;20478;-79
2022/01/05 09:10:42;;;;;;;14.67;10.93;;;;;;;-143.84;55.06;45066.22;5051666;28;20434;-80
2022/01/05 09:13:12;;;;;;;12.77;10.57;;;;;;;-143.84;54.54;45068.13;5050431;28;20875;-73
2022/01/05 09:15:41;;;;;;;15.33;11.63;;;;;;;-143.84;54.78;45092.88;5048857;28;20556;-73
2022/01/05 09:18:09;;;;;;;16.33;10.87;;;;;;;-143.84;54.26;45096.66;5050624;28;20451;-79
2022/01/05 09:20:36;;;;;;;20.30;11.00;;;;;;;-143.84;54.39;45073.81;5051078;28;20513;-79
2022/01/05 09:23:04;;;;;;;21.07;12.40;;;;;;;-143.84;53.52;45132.84;5049172;28;20979;-73
2022/01/05 09:25:31;;;;;;;17.40;12.37;;;;;;;-143.84;54.19;45068.13;5049672;28;20874;-74
2022/01/05 09:27:58;;;;;;;14.47;11.83;;;;;;;-143.84;52.77;45089.06;5041880;28;20516;-74
2022/01/05 09:30:27;;;;;;;15.00;11.40;;;;;;;-143.84;52.89;45064.31;5028512;28;20442;-74
2022/01/05 09:32:55;;;;;;;16.20;11.67;;;;;;;-143.84;52.95;45075.72;5028710;28;20449;-74
2022/01/05 09:35:26;;;;;;;16.30;10.87;;;;;;;-143.84;52.72;45089.06;5028711;28;20441;-75
2022/01/05 09:38:08;;;;;;;14.57;11.17;;;;;;;-143.84;51.58;45090.97;5028693;28;21031;-74
2022/01/05 09:43:21;;;;;;;19.17;11.07;;;;;;;-143.84;51.65;45045.25;5028688;28;20942;-74
2022/01/05 09:46:07;;;;;;;34.73;12.23;;;;;;;-143.84;52.18;45054.78;5028850;28;20529;-74
2022/01/05 09:49:01;;;;;;;15.03;10.47;;;;;;;-143.84;50.88;45071.91;5028307;28;20828;-75
2022/01/05 09:51:32;;;;;;;11.20;8.93;;;;;;;-143.84;49.95;45041.44;5028643;28;20446;-75
2022/01/05 09:54:03;;;;;;;17.70;10.50;;;;;;;-143.84;50.58;45056.69;5028734;28;20446;-75
2022/01/05 09:56:31;;;;;;;17.03;9.90;;;;;;;-143.84;50.02;45056.69;5028621;28;20453;-75
2022/01/05 09:59:01;;;;;;;14.03;8.93;;;;;;;-143.84;50.17;45066.22;5028776;28;20516;-75
2022/01/05 10:01:32;;;;;;;15.17;9.37;;;;;;;-143.84;50.19;45060.50;5028979;28;20451;-75
2022/01/05 10:04:00;;;;;;;13.70;9.17;;;;;;;-143.84;50.08;45062.41;5031471;28;20773;-80
2022/01/05 10:06:27;;;;;;;9.17;8.07;;;;;;;-143.84;50.13;45071.91;5034165;28;21051;-80
2022/01/05 10:08:55;;;;;;;9.47;8.43;;;;;;;-143.84;49.41;45071.91;5033267;28;21045;-75
2022/01/05 10:11:24;;;;;;;16.57;9.50;;;;;;;-143.84;48.85;45052.88;5032665;28;20541;-75
2022/01/05 10:13:51;;;;;;;14.00;7.57;;;;;;;-143.84;48.35;45054.78;5032565;28;20454;-75
2022/01/05 10:16:19;;;;;;;15.03;8.53;;;;;;;-143.84;49.12;45071.91;5032720;28;20447;-77
2022/01/05 10:18:47;;;;;;;10.37;8.17;;;;;;;-143.84;48.96;45060.50;5033372;28;20457;-76
2022/01/05 10:21:17;;;;;;;15.37;9.33;;;;;;;-143.84;48.79;45058.59;5032662;28;20440;-76
2022/01/05 10:23:46;;;;;;;10.23;8.27;;;;;;;-143.84;48.57;45079.53;5032543;28;20457;-76
2022/01/05 10:26:22;;;;;;;15.70;7.70;;;;;;;-143.84;47.63;45064.31;5032704;28;20446;-76
2022/01/05 10:28:49;;;;;;;9.03;7.20;;;;;;;-143.84;46.52;45075.72;5031904;28;20480;-76
2022/01/05 10:31:19;;;;;;;18.83;7.60;;;;;;;-143.84;47.75;45064.31;5030997;28;20528;-76
2022/01/05 10:33:48;;;;;;;11.00;7.80;;;;;;;-143.84;47.44;45060.50;5030222;28;20452;-76
2022/01/05 10:36:15;;;;;;;8.83;7.83;;;;;;;-143.84;46.31;45056.69;5031081;28;20438;-76
2022/01/05 10:38:55;;;;;;;8.23;7.30;;;;;;;-143.84;46.27;45071.91;5030920;28;20447;-76
2022/01/05 10:41:24;;;;;;;13.43;8.03;;;;;;;-143.84;45.54;45050.97;5031355;28;20512;-76
2022/01/05 10:44:16;;;;;;;10.53;8.17;;;;;;;-143.84;45.89;45066.22;5031392;28;20441;-76
2022/01/05 10:46:46;;;;;;;10.30;6.93;;;;;;;-143.84;45.87;45068.13;5031808;28;20442;-74
2022/01/05 10:49:29;;;;;;;14.80;6.73;;;;;;;-143.84;44.91;45111.91;5031621;28;20496;-74
2022/01/05 10:51:58;;;;;;;13.03;6.93;;;;;;;-143.84;45.14;45047.16;5031704;28;20458;-74
2022/01/05 10:54:28;;;;;;;10.67;6.50;;;;;;;-143.84;45.12;45064.31;5031965;28;20447;-78
2022/01/05 10:57:08;;;;;;;10.07;6.90;;;;;;;-143.84;44.41;45037.66;5031166;28;20442;-74
2022/01/05 10:59:42;;;;;;;9.23;6.87;;;;;;;-143.84;44.10;45073.81;5031677;28;20454;-76
2022/01/05 11:02:22;;;;;;;8.20;5.50;;;;;;;-143.84;43.04;45056.69;5031608;28;20991;-76
2022/01/05 11:04:50;;;;;;;7.30;6.13;;;;;;;-143.84;42.66;45062.41;5031903;28;20485;-78
2022/01/05 11:07:22;;;;;;;9.80;5.77;;;;;;;-143.84;42.48;45068.13;5032433;28;20439;-78
2022/01/05 11:09:57;;;;;;;16.73;6.17;;;;;;;-143.84;43.39;45062.41;5031969;28;20479;-77
2022/01/05 11:12:35;;;;;;;11.53;5.80;;;;;;;-143.84;43.46;45043.34;5031994;28;20442;-78